F/V Boree Al — FVN0 — position and weather

sailwx.info

Track history (hours):
 
Tides and Currents Weather Stations Pressure Air Temp Water Temp Dewpoint Dewpoint Depression Visibility Wind Speed Wind Dir Waves Ship Positions

F/V Boree Al

Last reported at 2017-Nov-19 14:13 UTC. Time now 2017-Nov-19 19:35 UTC.
Position N 48°20' W 005°19'.

Length 24 m; draft 4.5 m.

Type: Fishing. MMSI: 227558000.

Date/timePositionNaut miles runAvg speedWind from/ knotsBaromVisibWave heightAir tempDewpointWater temp
2017-Nov-19 14:13N 48°20' W 005°19'3 2.5
2017-Nov-19 13:01N 48°17' W 005°19'1 0.8
2017-Nov-19 11:49N 48°16' W 005°19'2 2.7
2017-Nov-19 11:07N 48°18' W 005°18'6 3.5
2017-Nov-19 09:25N 48°24' W 005°19'2 4.2
2017-Nov-19 08:59N 48°26' W 005°20'2 3.5
2017-Nov-19 08:18N 48°27' W 005°18'1 1.7
2017-Nov-19 07:58N 48°28' W 005°18'0 0.3
2017-Nov-19 07:25N 48°28' W 005°18'10 2.4
2017-Nov-19 03:22N 48°18' W 005°18'4 6.4
2017-Nov-19 02:46N 48°22' W 005°18'2 7.0
2017-Nov-19 02:29N 48°24' W 005°18'6 2.3
2017-Nov-18 23:40N 48°18' W 005°19'0 2.7
2017-Nov-18 23:29N 48°18' W 005°19'3 3.0
2017-Nov-18 22:36N 48°21' W 005°19'6 3.7
2017-Nov-18 21:06N 48°16' W 005°19'1 8.1
2017-Nov-18 20:58N 48°15' W 005°19'2 3.1
2017-Nov-18 20:21N 48°16' W 005°19'1 3.8
2017-Nov-18 19:59N 48°18' W 005°19'3 3.9
2017-Nov-18 19:13N 48°21' W 005°19'1 3.8
2017-Nov-18 18:57N 48°22' W 005°18'2 3.7
2017-Nov-18 18:30N 48°23' W 005°18'8 5.0
2017-Nov-18 16:51N 48°31' W 005°14'3 7.7
2017-Nov-18 16:30N 48°34' W 005°12'16 3.3
2017-Nov-18 11:36N 48°18' W 005°19'1 2.2
2017-Nov-18 11:19N 48°18' W 005°19'1 1.8
2017-Nov-18 10:59N 48°19' W 005°19'3 3.1
2017-Nov-18 09:52N 48°23' W 005°19'3 4.2
2017-Nov-18 09:04N 48°26' W 005°19'8 6.7
2017-Nov-18 07:55N 48°18' W 005°19'5 3.6
2017-Nov-18 06:29N 48°23' W 005°19'2 3.5
2017-Nov-18 05:52N 48°25' W 005°18'1 1.7
2017-Nov-18 05:28N 48°26' W 005°19'3 2.7
2017-Nov-18 04:19N 48°23' W 005°19'2 5.7
2017-Nov-18 04:00N 48°25' W 005°18'4 7.7
2017-Nov-18 03:25N 48°29' W 005°16'11 3.8
2017-Nov-18 00:34N 48°18' W 005°20'3 3.8
2017-Nov-17 23:45N 48°15' W 005°21'0 2.0
2017-Nov-17 23:30N 48°16' W 005°21'4 2.2
2017-Nov-17 21:45N 48°12' W 005°21'0 1.9
2017-Nov-17 21:30N 48°12' W 005°21'2 3.5
2017-Nov-17 21:00N 48°14' W 005°20'2 3.7
2017-Nov-17 20:29N 48°16' W 005°19'2 3.9
2017-Nov-17 20:00N 48°18' W 005°19'2 4.0
2017-Nov-17 19:29N 48°20' W 005°19'3 3.8
2017-Nov-17 18:47N 48°23' W 005°19'13 2.2
2017-Nov-17 13:09N 48°10' W 005°22'3 3.8
2017-Nov-17 12:15N 48°07' W 005°22'3 3.4
2017-Nov-17 11:19N 48°04' W 005°21'2 4.6
2017-Nov-17 10:53N 48°02' W 005°20'3 0.9
2017-Nov-17 07:07N 48°03' W 005°16'0 2.7
2017-Nov-17 06:57N 48°03' W 005°15'2 4.5
2017-Nov-17 06:30N 48°05' W 005°16'2 4.1
2017-Nov-17 05:57N 48°07' W 005°16'2 3.7
2017-Nov-17 05:30N 48°09' W 005°16'2 3.5
2017-Nov-17 05:00N 48°11' W 005°16'2 3.4
2017-Nov-17 04:27N 48°12' W 005°15'2 2.1
2017-Nov-17 03:17N 48°10' W 005°17'1 3.6
2017-Nov-17 02:59N 48°10' W 005°18'3 0.3
2017-Nov-16 14:58N 48°08' W 005°14'1 1.2
2017-Nov-16 14:26N 48°07' W 005°15'3 3.5
2017-Nov-16 13:42N 48°05' W 005°15'1 4.8
2017-Nov-16 13:30N 48°04' W 005°15'2 0.9
2017-Nov-16 10:56N 48°03' W 005°18'1 0.4
2017-Nov-16 08:17N 48°02' W 005°20'2 3.3
2017-Nov-16 07:44N 48°02' W 005°17'1 3.9
2017-Nov-16 07:25N 48°03' W 005°15'2 4.4
2017-Nov-16 06:59N 48°05' W 005°15'2 3.8
2017-Nov-16 06:29N 48°07' W 005°16'2 3.7
2017-Nov-16 05:59N 48°08' W 005°16'3 3.5
2017-Nov-16 05:09N 48°11' W 005°17'1 3.4
2017-Nov-16 04:56N 48°12' W 005°17'3 3.2
2017-Nov-16 04:06N 48°14' W 005°19'2 2.9
2017-Nov-16 03:31N 48°14' W 005°22'5 3.6
2017-Nov-16 02:14N 48°10' W 005°24'2 3.2
2017-Nov-16 01:36N 48°08' W 005°26'10 1.7
2017-Nov-15 19:35N 47°58' W 005°29'5 3.6
2017-Nov-15 18:20N 48°02' W 005°26'2 3.6
2017-Nov-15 17:43N 48°04' W 005°24'3 3.5
2017-Nov-15 16:46N 48°07' W 005°22'1 3.4
2017-Nov-15 16:30N 48°08' W 005°21'2 3.3
2017-Nov-15 16:00N 48°09' W 005°21'2 3.2
2017-Nov-15 15:30N 48°11' W 005°20'2 3.2
2017-Nov-15 14:59N 48°12' W 005°19'1 2.5
2017-Nov-15 14:25N 48°11' W 005°17'2 3.1
2017-Nov-15 13:50N 48°10' W 005°19'2 3.5
2017-Nov-15 13:24N 48°09' W 005°20'6 2.7
2017-Nov-15 11:00N 48°07' W 005°29'28 1.9
2017-Nov-14 20:14N 48°33' W 005°14'310.5
2017-Nov-14 19:56N 48°34' W 005°10'510.7
2017-Nov-14 19:30N 48°35' W 005°03'510.9
2017-Nov-14 19:00N 48°37' W 004°55'711.1
2017-Nov-14 18:21N 48°39' W 004°45'410.9
2017-Nov-14 18:00N 48°40' W 004°39'510.9
2017-Nov-14 17:31N 48°42' W 004°31'  
2017-Nov-10 00:37N 48°42' W 004°52'1 7.2
2017-Nov-10 00:29N 48°42' W 004°53'4 7.4
2017-Nov-09 23:58N 48°41' W 004°58'4 7.7
2017-Nov-09 23:28N 48°40' W 005°04'  
Track history (hours):
 
Tides and Currents Weather Stations Pressure Air Temp Water Temp Dewpoint Dewpoint Depression Visibility Wind Speed Wind Dir Waves Ship Positions

F/V Boree Al

Last reported at 2017-Nov-19 14:13 UTC. Time now 2017-Nov-19 19:35 UTC.
Position N 48°20' W 005°19'.

Length 24 m; draft 4.5 m.

Type: Fishing. MMSI: 227558000.

Date/timePositionNaut miles runAvg speedWind from/ knotsBaromVisibWave heightAir tempDewpointWater temp
2017-Nov-19 14:13N 48°20' W 005°19'3 2.5
2017-Nov-19 13:01N 48°17' W 005°19'1 0.8
2017-Nov-19 11:49N 48°16' W 005°19'2 2.7
2017-Nov-19 11:07N 48°18' W 005°18'6 3.5
2017-Nov-19 09:25N 48°24' W 005°19'2 4.2
2017-Nov-19 08:59N 48°26' W 005°20'2 3.5
2017-Nov-19 08:18N 48°27' W 005°18'1 1.7
2017-Nov-19 07:58N 48°28' W 005°18'0 0.3
2017-Nov-19 07:25N 48°28' W 005°18'10 2.4
2017-Nov-19 03:22N 48°18' W 005°18'4 6.4
2017-Nov-19 02:46N 48°22' W 005°18'2 7.0
2017-Nov-19 02:29N 48°24' W 005°18'6 2.3
2017-Nov-18 23:40N 48°18' W 005°19'0 2.7
2017-Nov-18 23:29N 48°18' W 005°19'3 3.0
2017-Nov-18 22:36N 48°21' W 005°19'6 3.7
2017-Nov-18 21:06N 48°16' W 005°19'1 8.1
2017-Nov-18 20:58N 48°15' W 005°19'2 3.1
2017-Nov-18 20:21N 48°16' W 005°19'1 3.8
2017-Nov-18 19:59N 48°18' W 005°19'3 3.9
2017-Nov-18 19:13N 48°21' W 005°19'1 3.8
2017-Nov-18 18:57N 48°22' W 005°18'2 3.7
2017-Nov-18 18:30N 48°23' W 005°18'8 5.0
2017-Nov-18 16:51N 48°31' W 005°14'3 7.7
2017-Nov-18 16:30N 48°34' W 005°12'16 3.3
2017-Nov-18 11:36N 48°18' W 005°19'1 2.2
2017-Nov-18 11:19N 48°18' W 005°19'1 1.8
2017-Nov-18 10:59N 48°19' W 005°19'3 3.1
2017-Nov-18 09:52N 48°23' W 005°19'3 4.2
2017-Nov-18 09:04N 48°26' W 005°19'8 6.7
2017-Nov-18 07:55N 48°18' W 005°19'5 3.6
2017-Nov-18 06:29N 48°23' W 005°19'2 3.5
2017-Nov-18 05:52N 48°25' W 005°18'1 1.7
2017-Nov-18 05:28N 48°26' W 005°19'3 2.7
2017-Nov-18 04:19N 48°23' W 005°19'2 5.7
2017-Nov-18 04:00N 48°25' W 005°18'4 7.7
2017-Nov-18 03:25N 48°29' W 005°16'11 3.8
2017-Nov-18 00:34N 48°18' W 005°20'3 3.8
2017-Nov-17 23:45N 48°15' W 005°21'0 2.0
2017-Nov-17 23:30N 48°16' W 005°21'4 2.2
2017-Nov-17 21:45N 48°12' W 005°21'0 1.9
2017-Nov-17 21:30N 48°12' W 005°21'2 3.5
2017-Nov-17 21:00N 48°14' W 005°20'2 3.7
2017-Nov-17 20:29N 48°16' W 005°19'2 3.9
2017-Nov-17 20:00N 48°18' W 005°19'2 4.0
2017-Nov-17 19:29N 48°20' W 005°19'3 3.8
2017-Nov-17 18:47N 48°23' W 005°19'13 2.2
2017-Nov-17 13:09N 48°10' W 005°22'3 3.8
2017-Nov-17 12:15N 48°07' W 005°22'3 3.4
2017-Nov-17 11:19N 48°04' W 005°21'2 4.6
2017-Nov-17 10:53N 48°02' W 005°20'3 0.9
2017-Nov-17 07:07N 48°03' W 005°16'0 2.7
2017-Nov-17 06:57N 48°03' W 005°15'2 4.5
2017-Nov-17 06:30N 48°05' W 005°16'2 4.1
2017-Nov-17 05:57N 48°07' W 005°16'2 3.7
2017-Nov-17 05:30N 48°09' W 005°16'2 3.5
2017-Nov-17 05:00N 48°11' W 005°16'2 3.4
2017-Nov-17 04:27N 48°12' W 005°15'2 2.1
2017-Nov-17 03:17N 48°10' W 005°17'1 3.6
2017-Nov-17 02:59N 48°10' W 005°18'3 0.3
2017-Nov-16 14:58N 48°08' W 005°14'1 1.2
2017-Nov-16 14:26N 48°07' W 005°15'3 3.5
2017-Nov-16 13:42N 48°05' W 005°15'1 4.8
2017-Nov-16 13:30N 48°04' W 005°15'2 0.9
2017-Nov-16 10:56N 48°03' W 005°18'1 0.4
2017-Nov-16 08:17N 48°02' W 005°20'2 3.3
2017-Nov-16 07:44N 48°02' W 005°17'1 3.9
2017-Nov-16 07:25N 48°03' W 005°15'2 4.4
2017-Nov-16 06:59N 48°05' W 005°15'2 3.8
2017-Nov-16 06:29N 48°07' W 005°16'2 3.7
2017-Nov-16 05:59N 48°08' W 005°16'3 3.5
2017-Nov-16 05:09N 48°11' W 005°17'1 3.4
2017-Nov-16 04:56N 48°12' W 005°17'3 3.2
2017-Nov-16 04:06N 48°14' W 005°19'2 2.9
2017-Nov-16 03:31N 48°14' W 005°22'5 3.6
2017-Nov-16 02:14N 48°10' W 005°24'2 3.2
2017-Nov-16 01:36N 48°08' W 005°26'10 1.7
2017-Nov-15 19:35N 47°58' W 005°29'5 3.6
2017-Nov-15 18:20N 48°02' W 005°26'2 3.6
2017-Nov-15 17:43N 48°04' W 005°24'3 3.5
2017-Nov-15 16:46N 48°07' W 005°22'1 3.4
2017-Nov-15 16:30N 48°08' W 005°21'2 3.3
2017-Nov-15 16:00N 48°09' W 005°21'2 3.2
2017-Nov-15 15:30N 48°11' W 005°20'2 3.2
2017-Nov-15 14:59N 48°12' W 005°19'1 2.5
2017-Nov-15 14:25N 48°11' W 005°17'2 3.1
2017-Nov-15 13:50N 48°10' W 005°19'2 3.5
2017-Nov-15 13:24N 48°09' W 005°20'6 2.7
2017-Nov-15 11:00N 48°07' W 005°29'28 1.9
2017-Nov-14 20:14N 48°33' W 005°14'310.5
2017-Nov-14 19:56N 48°34' W 005°10'510.7
2017-Nov-14 19:30N 48°35' W 005°03'510.9
2017-Nov-14 19:00N 48°37' W 004°55'711.1
2017-Nov-14 18:21N 48°39' W 004°45'410.9
2017-Nov-14 18:00N 48°40' W 004°39'510.9
2017-Nov-14 17:31N 48°42' W 004°31'  
2017-Nov-10 00:37N 48°42' W 004°52'1 7.2
2017-Nov-10 00:29N 48°42' W 004°53'4 7.4
2017-Nov-09 23:58N 48°41' W 004°58'4 7.7
2017-Nov-09 23:28N 48°40' W 005°04'  

Dump ship's entire track history